createdAt,value
2017-08-27T00:00:16.759Z,21.53
2017-08-27T00:02:44.163Z,21.48
2017-08-27T00:05:11.568Z,21.54
2017-08-27T00:07:38.970Z,21.47
2017-08-27T00:10:06.381Z,21.48
2017-08-27T00:12:33.783Z,21.48
2017-08-27T00:15:01.186Z,21.41
2017-08-27T00:17:28.591Z,21.42
2017-08-27T00:19:55.988Z,21.52
2017-08-27T00:22:23.403Z,21.47
2017-08-27T00:24:50.803Z,21.38
2017-08-27T00:27:18.203Z,21.41
2017-08-27T00:29:45.599Z,21.31
2017-08-27T00:32:13.003Z,21.22
2017-08-27T00:34:40.437Z,21.15
2017-08-27T00:37:07.884Z,21.12
2017-08-27T00:39:35.490Z,21.12
2017-08-27T00:42:02.892Z,21.06
2017-08-27T00:44:30.294Z,21.01
2017-08-27T00:46:57.690Z,20.96
2017-08-27T00:49:25.122Z,20.87
2017-08-27T00:51:52.506Z,20.90
2017-08-27T00:54:19.913Z,21.04
2017-08-27T00:56:47.315Z,21.13
2017-08-27T00:59:14.711Z,21.14
2017-08-27T01:01:42.116Z,21.27
2017-08-27T01:04:09.506Z,21.35
2017-08-27T01:06:36.912Z,21.38
2017-08-27T01:09:04.345Z,21.48
2017-08-27T01:11:31.747Z,21.52
2017-08-27T01:13:59.138Z,21.55
2017-08-27T01:16:26.553Z,21.50
2017-08-27T01:18:53.943Z,21.44
2017-08-27T01:21:21.342Z,21.17
2017-08-27T01:23:48.738Z,20.96
2017-08-27T01:26:16.148Z,20.72
2017-08-27T01:28:43.547Z,20.66
2017-08-27T01:31:10.960Z,20.70
2017-08-27T01:33:38.346Z,20.78
2017-08-27T01:36:05.750Z,20.77
2017-08-27T01:38:33.147Z,20.76
2017-08-27T01:41:00.553Z,20.60
2017-08-27T01:43:27.939Z,20.57
2017-08-27T01:45:55.358Z,20.56
2017-08-27T01:48:22.963Z,20.39
2017-08-27T01:50:50.363Z,20.19
2017-08-27T01:53:17.758Z,20.13
2017-08-27T01:55:45.183Z,20.15
2017-08-27T01:58:12.575Z,19.96
2017-08-27T02:00:39.974Z,19.95
2017-08-27T02:03:07.379Z,19.90
2017-08-27T02:05:34.783Z,19.85
2017-08-27T02:08:02.179Z,19.68
2017-08-27T02:10:29.575Z,19.53
2017-08-27T02:12:56.977Z,19.59
2017-08-27T02:15:24.374Z,19.46
2017-08-27T02:17:51.785Z,19.33
2017-08-27T02:20:19.187Z,19.15
2017-08-27T02:22:46.595Z,18.97
2017-08-27T02:25:13.995Z,18.92
2017-08-27T02:27:41.403Z,18.83
2017-08-27T02:30:08.799Z,18.87
2017-08-27T02:32:36.211Z,18.85
2017-08-27T02:35:03.606Z,18.79
2017-08-27T02:37:31.016Z,18.86
2017-08-27T02:39:58.407Z,18.82
2017-08-27T02:42:25.829Z,18.84
2017-08-27T02:44:53.215Z,18.79
2017-08-27T02:47:20.641Z,18.82
2017-08-27T02:49:48.238Z,18.79
2017-08-27T02:52:15.637Z,18.77
2017-08-27T02:54:43.030Z,18.80
2017-08-27T02:57:10.431Z,18.77
2017-08-27T02:59:37.835Z,18.74
2017-08-27T03:02:05.238Z,18.79
2017-08-27T03:04:32.639Z,18.67
2017-08-27T03:07:00.039Z,18.75
2017-08-27T03:09:27.454Z,18.67
2017-08-27T03:11:54.860Z,18.61
2017-08-27T03:14:22.267Z,18.62
2017-08-27T03:16:49.663Z,18.64
2017-08-27T03:19:17.068Z,18.69
2017-08-27T03:21:44.479Z,18.70
2017-08-27T03:24:11.878Z,18.69
2017-08-27T03:26:39.278Z,18.71
2017-08-27T03:29:06.687Z,18.77
2017-08-27T03:31:34.091Z,18.72
2017-08-27T03:34:01.483Z,18.88
2017-08-27T03:36:28.890Z,18.86
2017-08-27T03:38:56.275Z,18.87
2017-08-27T03:41:23.683Z,19.06
2017-08-27T03:43:51.120Z,19.16
2017-08-27T03:46:18.530Z,19.27
2017-08-27T03:48:45.941Z,19.33
2017-08-27T03:51:13.338Z,19.41
2017-08-27T03:53:40.737Z,19.48
2017-08-27T03:56:08.150Z,19.50
2017-08-27T03:58:35.552Z,19.51
2017-08-27T04:01:02.971Z,19.58
2017-08-27T04:03:30.371Z,19.53
2017-08-27T04:05:57.987Z,19.56
2017-08-27T04:08:25.392Z,19.55
2017-08-27T04:10:52.798Z,19.62
2017-08-27T04:13:20.195Z,19.60
2017-08-27T04:15:47.866Z,19.62
2017-08-27T04:18:15.259Z,19.61
2017-08-27T04:20:42.655Z,19.60
2017-08-27T04:23:10.059Z,19.49
2017-08-27T04:25:37.476Z,19.52
2017-08-27T04:28:04.897Z,19.61
2017-08-27T04:30:32.295Z,19.71
2017-08-27T04:32:59.931Z,19.62
2017-08-27T04:35:27.332Z,19.61
2017-08-27T04:37:54.743Z,19.65
2017-08-27T04:40:22.151Z,19.61
2017-08-27T04:42:49.767Z,19.59
2017-08-27T04:45:17.171Z,19.57
2017-08-27T04:47:44.570Z,19.37
2017-08-27T04:50:11.974Z,19.11
2017-08-27T04:52:39.379Z,19.21
2017-08-27T04:55:06.774Z,19.17
2017-08-27T04:57:34.206Z,19.11
2017-08-27T05:00:01.614Z,19.17
2017-08-27T05:02:29.019Z,19.20
2017-08-27T05:04:56.416Z,19.10
2017-08-27T05:07:23.817Z,19.13
2017-08-27T05:09:51.222Z,19.04
2017-08-27T05:12:18.639Z,18.98
2017-08-27T05:14:46.260Z,18.78
2017-08-27T05:17:13.664Z,18.56
2017-08-27T05:19:41.066Z,18.56
2017-08-27T05:22:08.456Z,18.35
2017-08-27T05:24:35.859Z,18.33
2017-08-27T05:27:03.252Z,18.11
2017-08-27T05:29:30.655Z,17.99
2017-08-27T05:31:58.053Z,17.92
2017-08-27T05:34:25.457Z,17.85
2017-08-27T05:36:52.855Z,17.65
2017-08-27T05:39:20.265Z,17.63
2017-08-27T05:41:47.673Z,17.63
2017-08-27T05:44:15.291Z,17.63
2017-08-27T05:46:42.914Z,17.50
2017-08-27T05:49:10.319Z,17.48
2017-08-27T05:51:37.726Z,17.27
2017-08-27T05:54:05.147Z,17.20
2017-08-27T05:56:32.551Z,17.20
2017-08-27T05:58:59.962Z,17.22
2017-08-27T06:01:27.358Z,17.31
2017-08-27T06:03:54.771Z,17.22
2017-08-27T06:06:22.182Z,17.14
2017-08-27T06:08:49.804Z,17.16
2017-08-27T06:11:17.203Z,17.21
2017-08-27T06:13:44.614Z,17.34
2017-08-27T06:16:12.011Z,17.26
2017-08-27T06:18:39.420Z,17.25
2017-08-27T06:21:06.815Z,17.33
2017-08-27T06:23:34.215Z,17.29
2017-08-27T06:26:01.619Z,17.38
2017-08-27T06:28:29.031Z,17.46
2017-08-27T06:30:56.431Z,17.58
2017-08-27T06:33:23.835Z,17.66
2017-08-27T06:35:51.244Z,17.79
2017-08-27T06:38:18.858Z,17.82
2017-08-27T06:40:46.267Z,17.82
2017-08-27T06:43:13.671Z,17.91
2017-08-27T06:45:41.086Z,17.95
2017-08-27T06:48:08.487Z,17.95
2017-08-27T06:50:35.897Z,18.10
2017-08-27T06:53:03.295Z,18.11
2017-08-27T06:55:30.694Z,18.07
2017-08-27T06:57:58.099Z,18.13
2017-08-27T07:00:25.520Z,18.23
2017-08-27T07:02:52.914Z,18.28
2017-08-27T07:05:20.330Z,18.37
2017-08-27T07:07:47.723Z,18.35
2017-08-27T07:10:15.127Z,18.41
2017-08-27T07:12:42.534Z,18.38
2017-08-27T07:15:09.934Z,18.48
2017-08-27T07:17:37.352Z,18.55
2017-08-27T07:20:04.763Z,18.64
2017-08-27T07:22:32.172Z,18.60
2017-08-27T07:24:59.567Z,18.68
2017-08-27T07:27:27.189Z,18.65
2017-08-27T07:29:54.597Z,18.75
2017-08-27T07:32:21.994Z,18.83
2017-08-27T07:34:49.396Z,18.86
2017-08-27T07:37:16.798Z,18.97
2017-08-27T07:39:44.198Z,18.92
2017-08-27T07:42:11.603Z,18.89
2017-08-27T07:44:41.852Z,18.94
2017-08-27T07:47:09.253Z,19.08
2017-08-27T07:49:36.648Z,19.22
2017-08-27T07:52:04.032Z,19.30
2017-08-27T07:54:31.431Z,19.41
2017-08-27T07:57:00.750Z,19.34
2017-08-27T07:59:28.146Z,19.43
2017-08-27T08:01:55.536Z,19.46
2017-08-27T08:04:22.940Z,19.50
2017-08-27T08:06:50.339Z,19.59
2017-08-27T08:09:17.998Z,19.59
2017-08-27T08:11:45.431Z,19.70
2017-08-27T08:14:12.830Z,19.69
2017-08-27T08:16:40.235Z,19.73
2017-08-27T08:19:07.649Z,19.76
2017-08-27T08:21:35.039Z,19.85
2017-08-27T08:24:02.439Z,19.76
2017-08-27T08:26:30.085Z,19.81
2017-08-27T08:28:57.495Z,19.78
2017-08-27T08:31:24.911Z,19.67
2017-08-27T08:33:52.308Z,19.65
2017-08-27T08:36:19.706Z,19.71
2017-08-27T08:38:47.101Z,19.63
2017-08-27T08:41:14.504Z,19.79
2017-08-27T08:43:41.895Z,19.92
2017-08-27T08:46:09.299Z,20.04
2017-08-27T08:48:36.683Z,20.17
2017-08-27T08:51:04.079Z,20.30
2017-08-27T08:53:31.475Z,20.37
2017-08-27T08:55:58.881Z,20.36
2017-08-27T08:58:26.273Z,20.45
2017-08-27T09:00:53.883Z,20.53
2017-08-27T09:03:21.270Z,20.50
2017-08-27T09:05:48.669Z,20.48
2017-08-27T09:08:16.051Z,20.45
2017-08-27T09:10:44.279Z,20.57
2017-08-27T09:13:11.651Z,20.61
2017-08-27T09:15:39.043Z,20.75
2017-08-27T09:18:06.435Z,20.87
2017-08-27T09:20:33.826Z,20.91
2017-08-27T09:23:01.215Z,20.85
2017-08-27T09:25:28.624Z,20.95
2017-08-27T09:27:55.998Z,20.99
2017-08-27T09:30:23.390Z,21.11
2017-08-27T09:32:50.776Z,21.00
2017-08-27T09:35:18.171Z,20.99
2017-08-27T09:37:45.570Z,21.06
2017-08-27T09:40:12.955Z,21.07
2017-08-27T09:42:40.352Z,21.15
2017-08-27T09:45:07.748Z,21.21
2017-08-27T09:47:35.142Z,21.32
2017-08-27T09:50:02.542Z,21.41
2017-08-27T09:52:29.936Z,21.31
2017-08-27T09:54:57.322Z,21.26
2017-08-27T09:57:24.715Z,21.29
2017-08-27T09:59:52.104Z,21.43
2017-08-27T10:02:19.494Z,21.59
2017-08-27T10:04:46.880Z,21.48
2017-08-27T10:07:14.271Z,21.47
2017-08-27T10:09:41.667Z,21.50
2017-08-27T10:12:09.071Z,21.60
2017-08-27T10:14:36.668Z,21.58
2017-08-27T10:17:04.079Z,21.64
2017-08-27T10:19:31.451Z,21.78
2017-08-27T10:21:58.859Z,21.78
2017-08-27T10:24:26.248Z,21.72
2017-08-27T10:26:53.640Z,21.51
2017-08-27T10:29:21.242Z,21.54
2017-08-27T10:31:48.631Z,21.60
2017-08-27T10:34:16.267Z,21.64
2017-08-27T10:36:43.655Z,21.71
2017-08-27T10:39:11.050Z,21.86
2017-08-27T10:41:38.443Z,21.95
2017-08-27T10:44:05.847Z,22.06
2017-08-27T10:46:33.238Z,22.13
2017-08-27T10:49:00.638Z,22.09
2017-08-27T10:51:28.026Z,22.23
2017-08-27T10:53:55.413Z,22.29
2017-08-27T10:56:22.804Z,22.16
2017-08-27T10:58:50.205Z,21.96
2017-08-27T11:01:17.586Z,21.91
2017-08-27T11:03:44.988Z,22.06
2017-08-27T11:06:12.374Z,22.13
2017-08-27T11:08:39.762Z,22.12
2017-08-27T11:11:07.155Z,22.09
2017-08-27T11:13:34.553Z,22.09
2017-08-27T11:16:01.939Z,22.15
2017-08-27T11:18:29.330Z,22.19
2017-08-27T11:20:56.767Z,22.15
2017-08-27T11:23:24.375Z,22.19
2017-08-27T11:25:51.764Z,22.21
2017-08-27T11:28:19.167Z,22.36
2017-08-27T11:30:46.554Z,22.38
2017-08-27T11:33:14.167Z,22.36
2017-08-27T11:35:41.556Z,22.40
2017-08-27T11:38:08.967Z,22.34
2017-08-27T11:40:36.351Z,22.36
2017-08-27T11:43:03.744Z,22.29
2017-08-27T11:45:31.143Z,22.34
2017-08-27T11:47:58.558Z,22.25
2017-08-27T11:50:25.998Z,22.35
2017-08-27T11:52:53.404Z,22.54
2017-08-27T11:55:20.803Z,22.71
2017-08-27T11:57:48.192Z,22.80
2017-08-27T12:00:15.586Z,22.69
2017-08-27T12:02:42.983Z,22.55
2017-08-27T12:05:10.397Z,22.45
2017-08-27T12:07:37.779Z,22.51
2017-08-27T12:10:05.171Z,22.65
2017-08-27T12:12:32.563Z,22.74
2017-08-27T12:14:59.955Z,22.82
2017-08-27T12:17:27.364Z,22.94
2017-08-27T12:19:54.747Z,23.04
2017-08-27T12:22:22.161Z,23.13
2017-08-27T12:24:49.554Z,23.02
2017-08-27T12:27:16.939Z,22.83
2017-08-27T12:29:44.326Z,22.87
2017-08-27T12:32:11.719Z,22.82
2017-08-27T12:34:39.134Z,22.90
2017-08-27T12:37:06.527Z,22.96
2017-08-27T12:39:33.915Z,23.02
2017-08-27T12:42:01.315Z,23.01
2017-08-27T12:44:28.696Z,23.13
2017-08-27T12:46:56.095Z,23.15
2017-08-27T12:49:23.509Z,23.05
2017-08-27T12:51:50.894Z,23.11
2017-08-27T12:54:18.293Z,23.16
2017-08-27T12:56:45.679Z,23.15
2017-08-27T12:59:13.075Z,23.12
2017-08-27T13:01:40.471Z,23.15
2017-08-27T13:04:07.863Z,23.14
2017-08-27T13:06:35.266Z,23.17
2017-08-27T13:09:02.654Z,23.17
2017-08-27T13:11:30.276Z,23.11
2017-08-27T13:13:57.664Z,23.11
2017-08-27T13:16:25.071Z,23.18
2017-08-27T13:18:52.460Z,23.16
2017-08-27T13:21:19.851Z,23.34
2017-08-27T13:23:47.248Z,23.42
2017-08-27T13:26:14.636Z,23.38
2017-08-27T13:28:42.027Z,23.40
2017-08-27T13:31:09.419Z,23.42
2017-08-27T13:33:37.031Z,23.46
2017-08-27T13:36:04.428Z,23.46
2017-08-27T13:38:31.815Z,23.36
2017-08-27T13:40:59.203Z,23.33
2017-08-27T13:43:26.599Z,23.36
2017-08-27T13:45:53.999Z,23.22
2017-08-27T13:48:21.406Z,23.14
2017-08-27T13:50:48.787Z,23.05
2017-08-27T13:53:16.191Z,23.04
2017-08-27T13:55:43.587Z,23.04
2017-08-27T13:58:10.977Z,23.11
2017-08-27T14:00:38.375Z,23.11
2017-08-27T14:03:05.988Z,23.23
2017-08-27T14:05:33.593Z,23.28
2017-08-27T14:08:00.979Z,23.42
2017-08-27T14:10:28.370Z,23.24
2017-08-27T14:12:55.764Z,23.38
2017-08-27T14:15:23.159Z,23.54
2017-08-27T14:17:50.565Z,23.63
2017-08-27T14:20:18.155Z,23.64
2017-08-27T14:22:45.555Z,23.71
2017-08-27T14:25:12.967Z,23.70
2017-08-27T14:27:40.356Z,23.69
2017-08-27T14:30:07.768Z,23.67
2017-08-27T14:32:35.163Z,23.61
2017-08-27T14:35:02.777Z,23.59
2017-08-27T14:37:30.172Z,23.43
2017-08-27T14:39:57.587Z,23.34
2017-08-27T14:42:24.971Z,23.34
2017-08-27T14:44:52.362Z,23.28
2017-08-27T14:47:19.767Z,23.29
2017-08-27T14:49:47.371Z,23.26
2017-08-27T14:52:14.763Z,23.21
2017-08-27T14:54:42.156Z,23.08
2017-08-27T14:57:10.240Z,23.10
2017-08-27T14:59:37.627Z,23.09
2017-08-27T15:02:05.036Z,23.20
2017-08-27T15:04:32.420Z,23.23
2017-08-27T15:07:00.026Z,23.25
2017-08-27T15:09:27.651Z,23.27
2017-08-27T15:11:55.031Z,23.22
2017-08-27T15:14:22.428Z,23.08
2017-08-27T15:16:49.818Z,22.94
2017-08-27T15:19:17.207Z,22.88
2017-08-27T15:21:44.595Z,22.87
2017-08-27T15:24:11.983Z,22.98
2017-08-27T15:26:39.387Z,23.04
2017-08-27T15:29:06.793Z,23.09
2017-08-27T15:31:34.183Z,23.02
2017-08-27T15:34:01.567Z,23.07
2017-08-27T15:36:28.958Z,23.20
2017-08-27T15:38:56.343Z,23.13
2017-08-27T15:41:23.997Z,23.19
2017-08-27T15:43:51.426Z,23.10
2017-08-27T15:46:19.024Z,23.06
2017-08-27T15:48:46.458Z,23.07
2017-08-27T15:51:13.846Z,23.15
2017-08-27T15:53:41.238Z,23.13
2017-08-27T15:56:08.627Z,23.03
2017-08-27T15:58:36.058Z,22.99
2017-08-27T16:01:03.439Z,23.01
2017-08-27T16:03:30.831Z,22.96
2017-08-27T16:05:58.222Z,22.95
2017-08-27T16:08:25.613Z,22.90
2017-08-27T16:10:53.011Z,22.95
2017-08-27T16:13:20.399Z,23.02
2017-08-27T16:15:47.799Z,23.07
2017-08-27T16:18:15.195Z,23.14
2017-08-27T16:20:42.577Z,23.25
2017-08-27T16:23:09.991Z,23.30
2017-08-27T16:25:37.383Z,23.26
2017-08-27T16:28:04.783Z,23.18
2017-08-27T16:30:32.184Z,23.18
2017-08-27T16:32:59.571Z,23.14
2017-08-27T16:35:26.977Z,23.15
2017-08-27T16:37:54.377Z,23.08
2017-08-27T16:40:21.771Z,22.99
2017-08-27T16:42:49.167Z,22.91
2017-08-27T16:45:16.571Z,22.83
2017-08-27T16:47:43.952Z,22.81
2017-08-27T16:50:11.342Z,22.70
2017-08-27T16:52:38.749Z,22.70
2017-08-27T16:55:06.126Z,22.77
2017-08-27T16:57:33.514Z,22.83
2017-08-27T17:00:00.924Z,22.79
2017-08-27T17:02:28.523Z,22.80
2017-08-27T17:04:56.127Z,22.82
2017-08-27T17:07:23.511Z,22.65
2017-08-27T17:09:50.923Z,22.64
2017-08-27T17:12:18.529Z,22.64
2017-08-27T17:14:45.932Z,22.63
2017-08-27T17:17:13.317Z,22.51
2017-08-27T17:19:42.096Z,22.50
2017-08-27T17:22:09.480Z,22.45
2017-08-27T17:24:36.883Z,22.35
2017-08-27T17:27:04.381Z,22.32
2017-08-27T17:29:31.762Z,22.24
2017-08-27T17:31:59.163Z,22.24
2017-08-27T17:34:26.561Z,22.28
2017-08-27T17:36:53.947Z,22.37
2017-08-27T17:39:21.335Z,22.26
2017-08-27T17:41:48.728Z,22.24
2017-08-27T17:44:16.123Z,22.17
2017-08-27T17:46:43.615Z,22.10
2017-08-27T17:49:11.122Z,22.11
2017-08-27T17:51:38.510Z,22.02
2017-08-27T17:54:05.915Z,22.01
2017-08-27T17:56:33.300Z,21.91
2017-08-27T17:59:00.902Z,21.86
2017-08-27T18:01:28.299Z,21.82
2017-08-27T18:03:55.691Z,21.76
2017-08-27T18:06:23.084Z,21.76
2017-08-27T18:08:50.488Z,21.73
2017-08-27T18:11:17.883Z,21.80
2017-08-27T18:13:45.280Z,21.93
2017-08-27T18:16:12.681Z,22.08
2017-08-27T18:18:40.064Z,22.20
2017-08-27T18:21:07.675Z,22.32
2017-08-27T18:23:35.092Z,22.42
2017-08-27T18:26:02.474Z,22.41
2017-08-27T18:28:29.866Z,22.46
2017-08-27T18:30:57.255Z,22.53
2017-08-27T18:33:24.650Z,22.54
2017-08-27T18:35:52.038Z,22.56
2017-08-27T18:38:19.432Z,22.65
2017-08-27T18:40:46.844Z,22.63
2017-08-27T18:43:14.240Z,22.68
2017-08-27T18:45:41.622Z,22.69
2017-08-27T18:48:09.106Z,22.67
2017-08-27T18:50:36.693Z,22.58
2017-08-27T18:53:04.095Z,22.57
2017-08-27T18:55:31.483Z,22.49
2017-08-27T18:57:58.931Z,22.61
2017-08-27T19:00:26.303Z,22.52
2017-08-27T19:02:59.203Z,22.50
2017-08-27T19:08:06.661Z,22.39
2017-08-27T19:10:34.038Z,22.44
2017-08-27T19:13:01.427Z,22.46
2017-08-27T19:15:28.825Z,22.46
2017-08-27T19:17:56.242Z,22.47
2017-08-27T19:20:23.633Z,22.35
2017-08-27T19:22:51.034Z,22.39
2017-08-27T19:25:18.432Z,22.29
2017-08-27T19:27:45.815Z,22.32
2017-08-27T19:30:13.216Z,22.18
2017-08-27T19:32:40.608Z,22.12
2017-08-27T19:35:08.009Z,21.90
2017-08-27T19:37:35.395Z,22.07
2017-08-27T19:40:02.787Z,22.07
2017-08-27T19:42:30.176Z,22.05
2017-08-27T19:44:57.580Z,22.10
2017-08-27T19:47:24.966Z,21.87
2017-08-27T19:49:52.368Z,21.75
2017-08-27T19:52:19.769Z,21.58
2017-08-27T19:54:47.203Z,21.72
2017-08-27T19:57:14.586Z,21.65
2017-08-27T19:59:41.979Z,21.65
2017-08-27T20:04:43.199Z,21.41
2017-08-27T20:07:10.583Z,21.48
2017-08-27T20:09:38.191Z,21.39
2017-08-27T20:12:05.588Z,21.42
2017-08-27T20:14:32.979Z,21.35
2017-08-27T20:19:34.243Z,21.28
2017-08-27T20:22:01.631Z,21.33
2017-08-27T20:24:29.027Z,21.21
2017-08-27T20:26:56.428Z,21.14
2017-08-27T20:29:23.819Z,21.10
2017-08-27T20:31:51.215Z,21.10
2017-08-27T20:34:18.615Z,20.96
2017-08-27T20:36:46.011Z,21.05
2017-08-27T20:39:13.410Z,20.89
2017-08-27T20:41:40.803Z,20.96
2017-08-27T20:44:08.199Z,21.01
2017-08-27T20:46:35.579Z,20.92
2017-08-27T20:49:02.983Z,20.79
2017-08-27T20:51:30.383Z,20.81
2017-08-27T20:53:57.778Z,20.80
2017-08-27T20:56:25.183Z,20.88
2017-08-27T20:58:52.579Z,20.76
2017-08-27T21:01:20.194Z,20.71
2017-08-27T21:03:47.579Z,20.67
2017-08-27T21:06:14.978Z,20.66
2017-08-27T21:08:42.378Z,20.51
2017-08-27T21:11:09.774Z,20.62
2017-08-27T21:13:37.179Z,20.51
2017-08-27T21:16:04.581Z,20.52
2017-08-27T21:18:31.978Z,20.53
2017-08-27T21:20:59.371Z,20.58
2017-08-27T21:23:26.762Z,20.66
2017-08-27T21:25:54.156Z,20.58
2017-08-27T21:28:21.543Z,20.59
2017-08-27T21:30:48.942Z,20.58
2017-08-27T21:33:16.335Z,20.48
2017-08-27T21:35:43.736Z,20.58
2017-08-27T21:38:11.123Z,20.52
2017-08-27T21:40:38.518Z,20.56
2017-08-27T21:43:05.911Z,20.52
2017-08-27T21:45:33.322Z,20.39
2017-08-27T21:48:00.727Z,20.33
2017-08-27T21:50:28.116Z,20.24
2017-08-27T21:52:55.511Z,20.00
2017-08-27T21:55:22.899Z,20.13
2017-08-27T21:57:50.295Z,20.12
2017-08-27T22:00:17.699Z,20.09
2017-08-27T22:02:45.095Z,20.02
2017-08-27T22:05:12.482Z,20.05
2017-08-27T22:07:39.879Z,19.83
2017-08-27T22:10:07.283Z,19.80
2017-08-27T22:12:34.678Z,19.73
2017-08-27T22:15:02.070Z,19.63
2017-08-27T22:17:29.468Z,19.61
2017-08-27T22:19:56.851Z,19.59
2017-08-27T22:22:24.243Z,19.63
2017-08-27T22:24:51.631Z,19.62
2017-08-27T22:27:19.026Z,19.57
2017-08-27T22:29:46.684Z,19.49
2017-08-27T22:32:14.347Z,19.51
2017-08-27T22:34:41.739Z,19.46
2017-08-27T22:37:09.710Z,19.47
2017-08-27T22:39:37.103Z,19.41
2017-08-27T22:42:04.504Z,19.18
2017-08-27T22:44:31.895Z,19.09
2017-08-27T22:46:59.290Z,19.00
2017-08-27T22:49:26.691Z,19.07
2017-08-27T22:51:54.099Z,19.09
2017-08-27T22:54:21.491Z,19.09
2017-08-27T22:56:48.895Z,18.99
2017-08-27T22:59:16.292Z,18.85
2017-08-27T23:01:43.691Z,19.01
2017-08-27T23:04:11.091Z,18.87
2017-08-27T23:06:38.507Z,18.90
2017-08-27T23:09:05.903Z,18.83
2017-08-27T23:11:33.295Z,18.92
2017-08-27T23:14:00.691Z,18.82
2017-08-27T23:16:28.085Z,18.89
2017-08-27T23:18:55.479Z,18.80
2017-08-27T23:21:22.927Z,18.86
2017-08-27T23:23:50.318Z,18.86
2017-08-27T23:26:17.712Z,18.70
2017-08-27T23:28:45.106Z,18.59
2017-08-27T23:31:12.502Z,18.52
2017-08-27T23:33:39.901Z,18.46
2017-08-27T23:36:07.282Z,18.44
2017-08-27T23:38:34.679Z,18.42
2017-08-27T23:41:02.064Z,18.38
2017-08-27T23:43:29.475Z,18.44
2017-08-27T23:45:56.869Z,18.53
2017-08-27T23:48:24.254Z,18.48
2017-08-27T23:50:51.647Z,18.55
2017-08-27T23:53:19.037Z,18.62
2017-08-27T23:55:46.435Z,18.62
2017-08-27T23:58:13.827Z,18.46
